createdAt,value
2023-05-07T00:00:59.391Z,13.1
2023-05-07T00:21:00.446Z,13.1
2023-05-07T00:31:01.068Z,13.1
2023-05-07T00:41:01.873Z,13
2023-05-07T00:51:02.591Z,13
2023-05-07T01:01:03.126Z,13
2023-05-07T01:11:03.243Z,13
2023-05-07T01:21:03.744Z,13
2023-05-07T01:31:04.764Z,12.9
2023-05-07T01:41:05.708Z,12.9
2023-05-07T01:51:06.249Z,12.8
2023-05-07T02:01:07.065Z,12.9
2023-05-07T02:11:07.322Z,12.8
2023-05-07T02:21:08.018Z,12.9
2023-05-07T02:31:08.671Z,12.8
2023-05-07T02:41:09.470Z,12.8
2023-05-07T02:51:10.519Z,12.8
2023-05-07T03:01:11.592Z,12.8
2023-05-07T03:11:12.483Z,12.8
2023-05-07T03:21:13.471Z,12.7
2023-05-07T03:31:14.514Z,12.7
2023-05-07T03:41:15.545Z,12.7
2023-05-07T03:51:15.872Z,12.7
2023-05-07T04:01:16.737Z,12.7
2023-05-07T04:11:16.939Z,12.6
2023-05-07T04:21:17.542Z,12.5
2023-05-07T04:31:18.281Z,12.6
2023-05-07T04:41:18.524Z,12.6
2023-05-07T04:51:18.868Z,12.7
2023-05-07T05:11:20.089Z,12.9
2023-05-07T05:21:21.253Z,13
2023-05-07T05:31:21.555Z,13.3
2023-05-07T05:41:22.463Z,13.6
2023-05-07T05:51:22.630Z,14
2023-05-07T06:11:23.586Z,14.4
2023-05-07T06:21:24.629Z,14.4
2023-05-07T06:31:25.613Z,14.8
2023-05-07T06:41:26.200Z,15
2023-05-07T06:51:26.347Z,14.9
2023-05-07T07:01:27.443Z,15.1
2023-05-07T07:21:28.597Z,15.4
2023-05-07T07:31:29.324Z,15.7
2023-05-07T07:51:30.783Z,16.5
2023-05-07T08:01:31.747Z,16.7
2023-05-07T08:21:34.416Z,17
2023-05-07T08:41:34.201Z,18.1
2023-05-07T09:11:36.208Z,18.1
2023-05-07T09:41:37.714Z,18.4
2023-05-07T10:01:39.569Z,18.6
2023-05-07T11:01:43.717Z,20.2
2023-05-07T11:41:46.657Z,21.1
2023-05-07T11:51:46.851Z,21
2023-05-07T12:01:47.785Z,21.7
2023-05-07T12:21:49.259Z,22.2
2023-05-07T12:41:50.559Z,21.4
2023-05-07T13:11:52.878Z,21.3
2023-05-07T13:21:53.503Z,21.1
2023-05-07T13:31:54.211Z,20.9
2023-05-07T14:21:58.211Z,20.3
2023-05-07T14:41:58.458Z,19.7
2023-05-07T14:51:59.432Z,19.4
2023-05-07T15:12:01.359Z,19.1
2023-05-07T15:22:02.295Z,19
2023-05-07T15:32:03.263Z,18.6
2023-05-07T15:42:04.035Z,18.4
2023-05-07T16:02:05.190Z,18.3
2023-05-07T16:12:06.045Z,18.4
2023-05-07T16:32:07.384Z,18.2
2023-05-07T16:42:07.832Z,18
2023-05-07T17:02:08.501Z,17.8
2023-05-07T17:12:09.077Z,17.7
2023-05-07T17:32:10.041Z,17.5
2023-05-07T18:02:11.692Z,17.3
2023-05-07T18:12:12.609Z,17.1
2023-05-07T18:32:14.687Z,16.7
2023-05-07T18:42:15.297Z,16.5
2023-05-07T19:02:16.679Z,16.3
2023-05-07T19:22:18.076Z,15.9
2023-05-07T19:32:19.009Z,15.8
2023-05-07T19:42:19.815Z,15.6
2023-05-07T19:52:20.597Z,15.5
2023-05-07T20:02:21.402Z,15.4
2023-05-07T20:12:22.101Z,15.2
2023-05-07T20:22:23.016Z,15.1
2023-05-07T20:32:23.586Z,15.1
2023-05-07T20:42:23.793Z,15
2023-05-07T20:52:24.105Z,15
2023-05-07T21:02:24.294Z,14.9
2023-05-07T21:22:25.392Z,14.9
2023-05-07T21:32:26.408Z,14.8
2023-05-07T21:42:26.548Z,14.7
2023-05-07T22:02:28.138Z,14.6
2023-05-07T22:12:28.654Z,14.5
2023-05-07T22:22:29.538Z,14.4
2023-05-07T22:32:30.091Z,14.3
2023-05-07T23:02:31.818Z,13.9
2023-05-07T23:12:32.407Z,13.8
2023-05-07T23:22:32.949Z,13.7
2023-05-07T23:32:33.332Z,13.5
2023-05-07T23:42:34.333Z,13.4
2023-05-07T23:52:34.525Z,13.3
